Hakozaki Maru — JJ3662 — position and weather

sailwx.info

Track history (hours):
 
Tides and Currents Weather Stations Pressure Air Temp Water Temp Dewpoint Dewpoint Depression Visibility Wind Speed Wind Dir Waves Ship Positions

Hakozaki Maru

Last reported at 2014-Oct-23 00:33 UTC. Time now 2014-Oct-23 00:41 UTC.
Position N 34°41' E 135°13'.

Length 31 m; draft 2.5 m.

Type: Tug. MMSI: 431000322.

Date/timePositionNaut miles runAvg speedWind from/ knotsBaromVisibWave heightAir tempDewpointWater temp
2014-Oct-23 00:33N 34°41' E 135°13'2 1.7
2014-Oct-22 23:33N 34°40' E 135°15'2 2.1
2014-Oct-22 22:33N 34°41' E 135°12'0 0.0
2014-Oct-22 21:33N 34°41' E 135°12'0 0.0
2014-Oct-22 06:11N 34°41' E 135°12'0 0.0
2014-Oct-22 05:33N 34°41' E 135°12'1 1.3
2014-Oct-22 04:34N 34°41' E 135°14'3 3.4
2014-Oct-22 03:33N 34°41' E 135°18'3 2.8
2014-Oct-22 02:34N 34°41' E 135°15'2 1.9
2014-Oct-22 01:33N 34°41' E 135°12'0 0.0
2014-Oct-22 00:33N 34°41' E 135°12'0 0.0
2014-Oct-21 23:33N 34°41' E 135°12'2 1.9
2014-Oct-21 22:33N 34°40' E 135°14'0 0.5
2014-Oct-21 21:34N 34°40' E 135°14'2 1.9
2014-Oct-21 20:34N 34°41' E 135°12'3 0.3
2014-Oct-21 09:25N 34°41' E 135°16'1 1.5
2014-Oct-21 08:33N 34°42' E 135°16'3 2.9
2014-Oct-21 07:33N 34°41' E 135°13'0 0.0
2014-Oct-21 06:33N 34°41' E 135°13'2 2.1
2014-Oct-21 05:33N 34°42' E 135°15'2 1.8
2014-Oct-21 04:33N 34°41' E 135°13'1 0.7
2014-Oct-21 03:33N 34°41' E 135°12'0 0.0
2014-Oct-21 02:33N 34°41' E 135°12'0 0.0
2014-Oct-21 01:33N 34°41' E 135°12'0 0.0
2014-Oct-21 00:33N 34°41' E 135°12'0 0.0
2014-Oct-20 23:33N 34°41' E 135°12'4 4.0
2014-Oct-20 22:33N 34°41' E 135°17'1 0.9
2014-Oct-20 21:33N 34°41' E 135°17'4 4.1
2014-Oct-20 20:33N 34°41' E 135°12'3 0.2
2014-Oct-20 03:33N 34°42' E 135°16'1 1.0
2014-Oct-20 02:34N 34°42' E 135°17'0 0.1
2014-Oct-20 01:33N 34°42' E 135°17'1 1.2
2014-Oct-20 00:33N 34°41' E 135°17'0 0.0
2014-Oct-19 23:33N 34°41' E 135°17'2 2.4
2014-Oct-19 22:33N 34°40' E 135°14'1 1.1
2014-Oct-19 21:33N 34°41' E 135°13'1 0.5
2014-Oct-19 20:33N 34°41' E 135°12'  
2014-Oct-16 09:33N 34°42' E 135°16'2 2.3
2014-Oct-16 08:33N 34°41' E 135°18'1 0.6
2014-Oct-16 07:33N 34°41' E 135°17'0 0.0
2014-Oct-16 06:34N 34°41' E 135°17'0 0.0
2014-Oct-16 05:33N 34°41' E 135°17'3 3.2
2014-Oct-16 04:33N 34°41' E 135°14'1 1.2
2014-Oct-16 03:33N 34°41' E 135°12'0 0.0
2014-Oct-16 02:33N 34°41' E 135°12'0 0.0
2014-Oct-16 01:33N 34°41' E 135°12'0 0.0
2014-Oct-16 00:34N 34°41' E 135°12'0 0.0
2014-Oct-15 23:34N 34°41' E 135°12'4 3.7
2014-Oct-15 22:34N 34°42' E 135°17'1 1.4
2014-Oct-15 21:33N 34°41' E 135°17'4 3.8
2014-Oct-15 20:33N 34°41' E 135°12'0 0.0
2014-Oct-15 08:03N 34°41' E 135°12'1 1.8
2014-Oct-15 07:33N 34°40' E 135°11'0 0.4
2014-Oct-15 06:33N 34°40' E 135°12'1 0.6
2014-Oct-15 05:33N 34°41' E 135°12'0 0.0
2014-Oct-15 04:33N 34°41' E 135°12'0 0.0
2014-Oct-15 03:33N 34°41' E 135°12'0 0.0
2014-Oct-15 02:33N 34°41' E 135°12'0 0.0
2014-Oct-15 01:33N 34°41' E 135°12'0 0.0
2014-Oct-15 00:33N 34°41' E 135°12'0 0.0
2014-Oct-14 23:33N 34°41' E 135°12'0 0.0
2014-Oct-14 06:10N 34°41' E 135°12'0 0.0
2014-Oct-14 05:33N 34°41' E 135°12'0 0.0
2014-Oct-14 04:33N 34°41' E 135°12'0 0.0
2014-Oct-14 03:33N 34°41' E 135°12'0 0.0
2014-Oct-14 02:33N 34°41' E 135°12'0 0.0
2014-Oct-14 01:33N 34°41' E 135°12'1 0.6
2014-Oct-14 00:33N 34°41' E 135°13'2 2.3
2014-Oct-13 23:34N 34°40' E 135°15'3 2.8
2014-Oct-13 22:33N 34°41' E 135°12'1 1.1
2014-Oct-13 21:34N 34°42' E 135°13'0 0.0
2014-Oct-13 20:33N 34°42' E 135°13'0 0.0
2014-Oct-13 19:33N 34°42' E 135°13'0 0.0
2014-Oct-13 18:33N 34°42' E 135°13'0 0.0
2014-Oct-13 17:33N 34°42' E 135°13'0 0.0
2014-Oct-13 16:33N 34°42' E 135°13'0 0.0
2014-Oct-13 15:33N 34°42' E 135°13'0 0.0
2014-Oct-13 14:33N 34°42' E 135°13'0 0.0
2014-Oct-13 13:33N 34°42' E 135°13'0 0.0
2014-Oct-13 12:33N 34°42' E 135°13'0 0.0
2014-Oct-13 11:33N 34°42' E 135°13'0 0.0
2014-Oct-13 10:33N 34°42' E 135°13'0 0.0
2014-Oct-13 09:33N 34°42' E 135°13'0 0.0
2014-Oct-13 08:33N 34°42' E 135°13'0 0.0
2014-Oct-13 07:33N 34°42' E 135°13'0 0.0
2014-Oct-13 06:33N 34°42' E 135°13'0 0.0
2014-Oct-13 05:33N 34°42' E 135°13'0 0.0
2014-Oct-13 04:33N 34°42' E 135°13'0 0.0
2014-Oct-13 03:33N 34°42' E 135°13'0 0.0
2014-Oct-13 02:33N 34°42' E 135°13'0 0.0
2014-Oct-13 01:33N 34°42' E 135°13'  
Track history (hours):
 
Tides and Currents Weather Stations Pressure Air Temp Water Temp Dewpoint Dewpoint Depression Visibility Wind Speed Wind Dir Waves Ship Positions

Hakozaki Maru

Last reported at 2014-Oct-23 00:33 UTC. Time now 2014-Oct-23 00:41 UTC.
Position N 34°41' E 135°13'.

Length 31 m; draft 2.5 m.

Type: Tug. MMSI: 431000322.

Date/timePositionNaut miles runAvg speedWind from/ knotsBaromVisibWave heightAir tempDewpointWater temp
2014-Oct-23 00:33N 34°41' E 135°13'2 1.7
2014-Oct-22 23:33N 34°40' E 135°15'2 2.1
2014-Oct-22 22:33N 34°41' E 135°12'0 0.0
2014-Oct-22 21:33N 34°41' E 135°12'0 0.0
2014-Oct-22 06:11N 34°41' E 135°12'0 0.0
2014-Oct-22 05:33N 34°41' E 135°12'1 1.3
2014-Oct-22 04:34N 34°41' E 135°14'3 3.4
2014-Oct-22 03:33N 34°41' E 135°18'3 2.8
2014-Oct-22 02:34N 34°41' E 135°15'2 1.9
2014-Oct-22 01:33N 34°41' E 135°12'0 0.0
2014-Oct-22 00:33N 34°41' E 135°12'0 0.0
2014-Oct-21 23:33N 34°41' E 135°12'2 1.9
2014-Oct-21 22:33N 34°40' E 135°14'0 0.5
2014-Oct-21 21:34N 34°40' E 135°14'2 1.9
2014-Oct-21 20:34N 34°41' E 135°12'3 0.3
2014-Oct-21 09:25N 34°41' E 135°16'1 1.5
2014-Oct-21 08:33N 34°42' E 135°16'3 2.9
2014-Oct-21 07:33N 34°41' E 135°13'0 0.0
2014-Oct-21 06:33N 34°41' E 135°13'2 2.1
2014-Oct-21 05:33N 34°42' E 135°15'2 1.8
2014-Oct-21 04:33N 34°41' E 135°13'1 0.7
2014-Oct-21 03:33N 34°41' E 135°12'0 0.0
2014-Oct-21 02:33N 34°41' E 135°12'0 0.0
2014-Oct-21 01:33N 34°41' E 135°12'0 0.0
2014-Oct-21 00:33N 34°41' E 135°12'0 0.0
2014-Oct-20 23:33N 34°41' E 135°12'4 4.0
2014-Oct-20 22:33N 34°41' E 135°17'1 0.9
2014-Oct-20 21:33N 34°41' E 135°17'4 4.1
2014-Oct-20 20:33N 34°41' E 135°12'3 0.2
2014-Oct-20 03:33N 34°42' E 135°16'1 1.0
2014-Oct-20 02:34N 34°42' E 135°17'0 0.1
2014-Oct-20 01:33N 34°42' E 135°17'1 1.2
2014-Oct-20 00:33N 34°41' E 135°17'0 0.0
2014-Oct-19 23:33N 34°41' E 135°17'2 2.4
2014-Oct-19 22:33N 34°40' E 135°14'1 1.1
2014-Oct-19 21:33N 34°41' E 135°13'1 0.5
2014-Oct-19 20:33N 34°41' E 135°12'  
2014-Oct-16 09:33N 34°42' E 135°16'2 2.3
2014-Oct-16 08:33N 34°41' E 135°18'1 0.6
2014-Oct-16 07:33N 34°41' E 135°17'0 0.0
2014-Oct-16 06:34N 34°41' E 135°17'0 0.0
2014-Oct-16 05:33N 34°41' E 135°17'3 3.2
2014-Oct-16 04:33N 34°41' E 135°14'1 1.2
2014-Oct-16 03:33N 34°41' E 135°12'0 0.0
2014-Oct-16 02:33N 34°41' E 135°12'0 0.0
2014-Oct-16 01:33N 34°41' E 135°12'0 0.0
2014-Oct-16 00:34N 34°41' E 135°12'0 0.0
2014-Oct-15 23:34N 34°41' E 135°12'4 3.7
2014-Oct-15 22:34N 34°42' E 135°17'1 1.4
2014-Oct-15 21:33N 34°41' E 135°17'4 3.8
2014-Oct-15 20:33N 34°41' E 135°12'0 0.0
2014-Oct-15 08:03N 34°41' E 135°12'1 1.8
2014-Oct-15 07:33N 34°40' E 135°11'0 0.4
2014-Oct-15 06:33N 34°40' E 135°12'1 0.6
2014-Oct-15 05:33N 34°41' E 135°12'0 0.0
2014-Oct-15 04:33N 34°41' E 135°12'0 0.0
2014-Oct-15 03:33N 34°41' E 135°12'0 0.0
2014-Oct-15 02:33N 34°41' E 135°12'0 0.0
2014-Oct-15 01:33N 34°41' E 135°12'0 0.0
2014-Oct-15 00:33N 34°41' E 135°12'0 0.0
2014-Oct-14 23:33N 34°41' E 135°12'0 0.0
2014-Oct-14 06:10N 34°41' E 135°12'0 0.0
2014-Oct-14 05:33N 34°41' E 135°12'0 0.0
2014-Oct-14 04:33N 34°41' E 135°12'0 0.0
2014-Oct-14 03:33N 34°41' E 135°12'0 0.0
2014-Oct-14 02:33N 34°41' E 135°12'0 0.0
2014-Oct-14 01:33N 34°41' E 135°12'1 0.6
2014-Oct-14 00:33N 34°41' E 135°13'2 2.3
2014-Oct-13 23:34N 34°40' E 135°15'3 2.8
2014-Oct-13 22:33N 34°41' E 135°12'1 1.1
2014-Oct-13 21:34N 34°42' E 135°13'0 0.0
2014-Oct-13 20:33N 34°42' E 135°13'0 0.0
2014-Oct-13 19:33N 34°42' E 135°13'0 0.0
2014-Oct-13 18:33N 34°42' E 135°13'0 0.0
2014-Oct-13 17:33N 34°42' E 135°13'0 0.0
2014-Oct-13 16:33N 34°42' E 135°13'0 0.0
2014-Oct-13 15:33N 34°42' E 135°13'0 0.0
2014-Oct-13 14:33N 34°42' E 135°13'0 0.0
2014-Oct-13 13:33N 34°42' E 135°13'0 0.0
2014-Oct-13 12:33N 34°42' E 135°13'0 0.0
2014-Oct-13 11:33N 34°42' E 135°13'0 0.0
2014-Oct-13 10:33N 34°42' E 135°13'0 0.0
2014-Oct-13 09:33N 34°42' E 135°13'0 0.0
2014-Oct-13 08:33N 34°42' E 135°13'0 0.0
2014-Oct-13 07:33N 34°42' E 135°13'0 0.0
2014-Oct-13 06:33N 34°42' E 135°13'0 0.0
2014-Oct-13 05:33N 34°42' E 135°13'0 0.0
2014-Oct-13 04:33N 34°42' E 135°13'0 0.0
2014-Oct-13 03:33N 34°42' E 135°13'0 0.0
2014-Oct-13 02:33N 34°42' E 135°13'0 0.0
2014-Oct-13 01:33N 34°42' E 135°13'  

Dump ship's entire track history